sensor_id;sensor_type;location;lat;lon;timestamp;temperature;humidity
16893;DHT22;8563;52.242;9.098;2024-02-26T00:01:25;3.60;99.90
16893;DHT22;8563;52.242;9.098;2024-02-26T00:03:57;3.60;99.90
16893;DHT22;8563;52.242;9.098;2024-02-26T00:06:30;3.50;99.90
16893;DHT22;8563;52.242;9.098;2024-02-26T00:09:02;3.50;99.90
16893;DHT22;8563;52.242;9.098;2024-02-26T00:11:37;3.40;99.90
16893;DHT22;8563;52.242;9.098;2024-02-26T00:14:09;3.40;99.90
16893;DHT22;8563;52.242;9.098;2024-02-26T00:16:43;3.40;99.90
16893;DHT22;8563;52.242;9.098;2024-02-26T00:19:16;3.40;99.90
16893;DHT22;8563;52.242;9.098;2024-02-26T00:21:48;3.30;99.90
16893;DHT22;8563;52.242;9.098;2024-02-26T00:24:20;3.30;99.90
16893;DHT22;8563;52.242;9.098;2024-02-26T00:26:52;3.30;99.90
16893;DHT22;8563;52.242;9.098;2024-02-26T00:29:25;3.30;99.90
16893;DHT22;8563;52.242;9.098;2024-02-26T00:31:59;3.30;99.90
16893;DHT22;8563;52.242;9.098;2024-02-26T00:34:31;3.30;99.90
16893;DHT22;8563;52.242;9.098;2024-02-26T00:37:03;3.30;99.90
16893;DHT22;8563;52.242;9.098;2024-02-26T00:39:36;3.40;99.90
16893;DHT22;8563;52.242;9.098;2024-02-26T00:42:08;3.40;99.90
16893;DHT22;8563;52.242;9.098;2024-02-26T00:44:40;3.40;99.90
16893;DHT22;8563;52.242;9.098;2024-02-26T00:47:14;3.40;99.90
16893;DHT22;8563;52.242;9.098;2024-02-26T00:49:46;3.40;99.90
16893;DHT22;8563;52.242;9.098;2024-02-26T00:52:19;3.40;99.90
16893;DHT22;8563;52.242;9.098;2024-02-26T00:54:51;3.40;99.90
16893;DHT22;8563;52.242;9.098;2024-02-26T00:57:23;3.40;99.90
16893;DHT22;8563;52.242;9.098;2024-02-26T00:59:55;3.50;99.90
16893;DHT22;8563;52.242;9.098;2024-02-26T01:02:29;3.50;99.90
16893;DHT22;8563;52.242;9.098;2024-02-26T01:05:01;3.50;99.90
16893;DHT22;8563;52.242;9.098;2024-02-26T01:07:34;3.50;99.90
16893;DHT22;8563;52.242;9.098;2024-02-26T01:10:07;3.50;99.90
16893;DHT22;8563;52.242;9.098;2024-02-26T01:12:39;3.50;99.90
16893;DHT22;8563;52.242;9.098;2024-02-26T01:15:12;3.50;99.90
16893;DHT22;8563;52.242;9.098;2024-02-26T01:17:45;3.50;99.90
16893;DHT22;8563;52.242;9.098;2024-02-26T01:20:17;3.60;99.90
16893;DHT22;8563;52.242;9.098;2024-02-26T01:22:49;3.60;99.90
16893;DHT22;8563;52.242;9.098;2024-02-26T01:25:22;3.70;99.90
16893;DHT22;8563;52.242;9.098;2024-02-26T01:27:54;3.70;99.90
16893;DHT22;8563;52.242;9.098;2024-02-26T01:30:26;3.70;99.90
16893;DHT22;8563;52.242;9.098;2024-02-26T01:32:59;3.70;99.90
16893;DHT22;8563;52.242;9.098;2024-02-26T01:35:32;3.70;99.90
16893;DHT22;8563;52.242;9.098;2024-02-26T01:38:04;3.70;99.90
16893;DHT22;8563;52.242;9.098;2024-02-26T01:40:36;3.60;99.90
16893;DHT22;8563;52.242;9.098;2024-02-26T01:43:09;3.60;99.90
16893;DHT22;8563;52.242;9.098;2024-02-26T01:45:41;3.50;99.90
16893;DHT22;8563;52.242;9.098;2024-02-26T01:48:15;3.50;99.90
16893;DHT22;8563;52.242;9.098;2024-02-26T01:50:47;3.50;99.90
16893;DHT22;8563;52.242;9.098;2024-02-26T01:53:20;3.50;99.90
16893;DHT22;8563;52.242;9.098;2024-02-26T01:55:52;3.40;99.90
16893;DHT22;8563;52.242;9.098;2024-02-26T01:58:24;3.40;99.90
16893;DHT22;8563;52.242;9.098;2024-02-26T02:00:57;3.40;99.90
16893;DHT22;8563;52.242;9.098;2024-02-26T02:03:31;3.40;99.90
16893;DHT22;8563;52.242;9.098;2024-02-26T02:06:04;3.30;99.90
16893;DHT22;8563;52.242;9.098;2024-02-26T02:08:37;3.30;99.90
16893;DHT22;8563;52.242;9.098;2024-02-26T02:11:10;3.30;99.90
16893;DHT22;8563;52.242;9.098;2024-02-26T02:13:43;3.30;99.90
16893;DHT22;8563;52.242;9.098;2024-02-26T02:16:16;3.30;99.90
16893;DHT22;8563;52.242;9.098;2024-02-26T02:18:49;3.30;99.90
16893;DHT22;8563;52.242;9.098;2024-02-26T02:21:23;3.30;99.90
16893;DHT22;8563;52.242;9.098;2024-02-26T02:23:55;3.30;99.90
16893;DHT22;8563;52.242;9.098;2024-02-26T02:26:27;3.30;99.90
16893;DHT22;8563;52.242;9.098;2024-02-26T02:29:00;3.30;99.90
16893;DHT22;8563;52.242;9.098;2024-02-26T02:31:33;3.30;99.90
16893;DHT22;8563;52.242;9.098;2024-02-26T02:34:06;3.20;99.90
16893;DHT22;8563;52.242;9.098;2024-02-26T02:36:51;3.20;99.90
16893;DHT22;8563;52.242;9.098;2024-02-26T02:39:23;3.20;99.90
16893;DHT22;8563;52.242;9.098;2024-02-26T02:41:55;3.20;99.90
16893;DHT22;8563;52.242;9.098;2024-02-26T02:44:28;3.20;99.90
16893;DHT22;8563;52.242;9.098;2024-02-26T02:47:00;3.20;99.90
16893;DHT22;8563;52.242;9.098;2024-02-26T02:49:32;3.10;99.90
16893;DHT22;8563;52.242;9.098;2024-02-26T02:52:06;3.10;99.90
16893;DHT22;8563;52.242;9.098;2024-02-26T02:54:38;3.00;99.90
16893;DHT22;8563;52.242;9.098;2024-02-26T02:57:12;3.00;99.90
16893;DHT22;8563;52.242;9.098;2024-02-26T02:59:44;3.10;99.90
16893;DHT22;8563;52.242;9.098;2024-02-26T03:02:17;3.10;99.90
16893;DHT22;8563;52.242;9.098;2024-02-26T03:04:49;3.20;99.90
16893;DHT22;8563;52.242;9.098;2024-02-26T03:07:22;3.30;99.90
16893;DHT22;8563;52.242;9.098;2024-02-26T03:09:55;3.30;99.90
16893;DHT22;8563;52.242;9.098;2024-02-26T03:12:27;3.40;99.90
16893;DHT22;8563;52.242;9.098;2024-02-26T03:15:00;3.40;99.90
16893;DHT22;8563;52.242;9.098;2024-02-26T03:17:33;3.40;99.90
16893;DHT22;8563;52.242;9.098;2024-02-26T03:20:07;3.50;99.90
16893;DHT22;8563;52.242;9.098;2024-02-26T03:22:41;3.50;99.90
16893;DHT22;8563;52.242;9.098;2024-02-26T03:25:14;3.50;99.90
16893;DHT22;8563;52.242;9.098;2024-02-26T03:27:46;3.50;99.90
16893;DHT22;8563;52.242;9.098;2024-02-26T03:30:18;3.50;99.90
16893;DHT22;8563;52.242;9.098;2024-02-26T03:32:50;3.50;99.90
16893;DHT22;8563;52.242;9.098;2024-02-26T03:35:23;3.50;99.90
16893;DHT22;8563;52.242;9.098;2024-02-26T03:37:56;3.50;99.90
16893;DHT22;8563;52.242;9.098;2024-02-26T03:40:28;3.50;99.90
16893;DHT22;8563;52.242;9.098;2024-02-26T03:43:01;3.50;99.90
16893;DHT22;8563;52.242;9.098;2024-02-26T03:45:33;3.50;99.90
16893;DHT22;8563;52.242;9.098;2024-02-26T03:48:06;3.50;99.90
16893;DHT22;8563;52.242;9.098;2024-02-26T03:50:38;3.60;99.90
16893;DHT22;8563;52.242;9.098;2024-02-26T03:53:12;3.60;99.90
16893;DHT22;8563;52.242;9.098;2024-02-26T03:55:44;3.60;99.90
16893;DHT22;8563;52.242;9.098;2024-02-26T03:58:16;3.60;99.90
16893;DHT22;8563;52.242;9.098;2024-02-26T04:00:49;3.60;99.90
16893;DHT22;8563;52.242;9.098;2024-02-26T04:03:21;3.60;99.90
16893;DHT22;8563;52.242;9.098;2024-02-26T04:05:53;3.70;99.90
16893;DHT22;8563;52.242;9.098;2024-02-26T04:08:27;3.60;99.90
16893;DHT22;8563;52.242;9.098;2024-02-26T04:10:59;3.60;99.90
16893;DHT22;8563;52.242;9.098;2024-02-26T04:13:31;3.60;99.90
16893;DHT22;8563;52.242;9.098;2024-02-26T04:16:04;3.60;99.90
16893;DHT22;8563;52.242;9.098;2024-02-26T04:18:37;3.70;99.90
16893;DHT22;8563;52.242;9.098;2024-02-26T04:21:09;3.70;99.90
16893;DHT22;8563;52.242;9.098;2024-02-26T04:23:42;3.70;99.90
16893;DHT22;8563;52.242;9.098;2024-02-26T04:26:15;3.70;99.90
16893;DHT22;8563;52.242;9.098;2024-02-26T04:28:47;3.70;99.90
16893;DHT22;8563;52.242;9.098;2024-02-26T04:31:19;3.70;99.90
16893;DHT22;8563;52.242;9.098;2024-02-26T04:33:51;3.70;99.90
16893;DHT22;8563;52.242;9.098;2024-02-26T04:36:24;3.80;99.90
16893;DHT22;8563;52.242;9.098;2024-02-26T04:38:58;3.80;99.90
16893;DHT22;8563;52.242;9.098;2024-02-26T04:41:30;3.80;99.90
16893;DHT22;8563;52.242;9.098;2024-02-26T04:44:02;3.80;99.90
16893;DHT22;8563;52.242;9.098;2024-02-26T04:46:35;3.80;99.90
16893;DHT22;8563;52.242;9.098;2024-02-26T04:49:07;3.90;99.90
16893;DHT22;8563;52.242;9.098;2024-02-26T04:51:39;4.00;99.90
16893;DHT22;8563;52.242;9.098;2024-02-26T04:54:13;3.90;99.90
16893;DHT22;8563;52.242;9.098;2024-02-26T04:56:45;4.00;99.90
16893;DHT22;8563;52.242;9.098;2024-02-26T04:59:17;4.00;99.90
16893;DHT22;8563;52.242;9.098;2024-02-26T05:01:50;4.00;99.90
16893;DHT22;8563;52.242;9.098;2024-02-26T05:04:23;4.00;99.90
16893;DHT22;8563;52.242;9.098;2024-02-26T05:06:55;4.00;99.90
16893;DHT22;8563;52.242;9.098;2024-02-26T05:09:29;4.00;99.90
16893;DHT22;8563;52.242;9.098;2024-02-26T05:12:01;4.00;99.90
16893;DHT22;8563;52.242;9.098;2024-02-26T05:14:34;4.00;99.90
16893;DHT22;8563;52.242;9.098;2024-02-26T05:17:12;3.90;99.90
16893;DHT22;8563;52.242;9.098;2024-02-26T05:19:44;3.90;99.90
16893;DHT22;8563;52.242;9.098;2024-02-26T05:22:17;3.90;99.90
16893;DHT22;8563;52.242;9.098;2024-02-26T05:24:50;3.90;99.90
16893;DHT22;8563;52.242;9.098;2024-02-26T05:27:23;4.00;99.90
16893;DHT22;8563;52.242;9.098;2024-02-26T05:29:55;4.00;99.90
16893;DHT22;8563;52.242;9.098;2024-02-26T05:32:27;4.00;99.90
16893;DHT22;8563;52.242;9.098;2024-02-26T05:34:59;4.00;99.90
16893;DHT22;8563;52.242;9.098;2024-02-26T05:37:33;4.00;99.90
16893;DHT22;8563;52.242;9.098;2024-02-26T05:40:08;4.10;99.90
16893;DHT22;8563;52.242;9.098;2024-02-26T05:42:40;4.10;99.90
16893;DHT22;8563;52.242;9.098;2024-02-26T05:45:15;4.10;99.90
16893;DHT22;8563;52.242;9.098;2024-02-26T05:47:48;4.20;99.90
16893;DHT22;8563;52.242;9.098;2024-02-26T05:50:20;4.10;99.90
16893;DHT22;8563;52.242;9.098;2024-02-26T05:52:53;4.10;99.90
16893;DHT22;8563;52.242;9.098;2024-02-26T05:55:26;4.10;99.90
16893;DHT22;8563;52.242;9.098;2024-02-26T05:57:58;4.10;99.90
16893;DHT22;8563;52.242;9.098;2024-02-26T06:00:31;4.10;99.90
16893;DHT22;8563;52.242;9.098;2024-02-26T06:03:03;4.10;99.90
16893;DHT22;8563;52.242;9.098;2024-02-26T06:05:35;4.10;99.90
16893;DHT22;8563;52.242;9.098;2024-02-26T06:08:08;4.10;99.90
16893;DHT22;8563;52.242;9.098;2024-02-26T06:10:41;4.10;99.90
16893;DHT22;8563;52.242;9.098;2024-02-26T06:13:14;4.00;99.90
16893;DHT22;8563;52.242;9.098;2024-02-26T06:15:46;4.00;99.90
16893;DHT22;8563;52.242;9.098;2024-02-26T06:18:18;4.00;99.90
16893;DHT22;8563;52.242;9.098;2024-02-26T06:20:50;4.10;99.90
16893;DHT22;8563;52.242;9.098;2024-02-26T06:23:23;4.20;99.90
16893;DHT22;8563;52.242;9.098;2024-02-26T06:25:56;4.10;99.90
16893;DHT22;8563;52.242;9.098;2024-02-26T06:28:28;4.10;99.90
16893;DHT22;8563;52.242;9.098;2024-02-26T06:31:04;4.10;99.90
16893;DHT22;8563;52.242;9.098;2024-02-26T06:33:36;4.20;99.90
16893;DHT22;8563;52.242;9.098;2024-02-26T06:36:08;4.20;99.90
16893;DHT22;8563;52.242;9.098;2024-02-26T06:38:41;4.20;99.90
16893;DHT22;8563;52.242;9.098;2024-02-26T06:41:14;4.30;99.90
16893;DHT22;8563;52.242;9.098;2024-02-26T06:43:47;4.30;99.90
16893;DHT22;8563;52.242;9.098;2024-02-26T06:46:19;4.30;99.90
16893;DHT22;8563;52.242;9.098;2024-02-26T06:48:52;4.30;99.90
16893;DHT22;8563;52.242;9.098;2024-02-26T06:51:24;4.30;99.90
16893;DHT22;8563;52.242;9.098;2024-02-26T06:53:56;4.30;99.90
16893;DHT22;8563;52.242;9.098;2024-02-26T06:56:30;4.40;99.90
16893;DHT22;8563;52.242;9.098;2024-02-26T06:59:02;4.40;99.90
16893;DHT22;8563;52.242;9.098;2024-02-26T07:01:34;4.40;99.90
16893;DHT22;8563;52.242;9.098;2024-02-26T07:04:06;4.50;99.90
16893;DHT22;8563;52.242;9.098;2024-02-26T07:06:38;4.50;99.90
16893;DHT22;8563;52.242;9.098;2024-02-26T07:09:10;4.50;99.90
16893;DHT22;8563;52.242;9.098;2024-02-26T07:11:45;4.60;99.90
16893;DHT22;8563;52.242;9.098;2024-02-26T07:14:17;4.60;99.90
16893;DHT22;8563;52.242;9.098;2024-02-26T07:16:49;4.70;99.90
16893;DHT22;8563;52.242;9.098;2024-02-26T07:19:21;4.70;99.90
16893;DHT22;8563;52.242;9.098;2024-02-26T07:21:54;4.70;99.90
16893;DHT22;8563;52.242;9.098;2024-02-26T07:24:26;4.80;99.90
16893;DHT22;8563;52.242;9.098;2024-02-26T07:26:59;4.80;99.90
16893;DHT22;8563;52.242;9.098;2024-02-26T07:29:32;4.80;99.90
16893;DHT22;8563;52.242;9.098;2024-02-26T07:32:05;4.90;99.90
16893;DHT22;8563;52.242;9.098;2024-02-26T07:34:37;5.00;99.90
16893;DHT22;8563;52.242;9.098;2024-02-26T07:37:12;5.30;99.90
16893;DHT22;8563;52.242;9.098;2024-02-26T07:39:44;5.60;99.90
16893;DHT22;8563;52.242;9.098;2024-02-26T07:42:18;5.70;99.90
16893;DHT22;8563;52.242;9.098;2024-02-26T07:44:51;5.60;99.90
16893;DHT22;8563;52.242;9.098;2024-02-26T07:47:23;5.40;99.90
16893;DHT22;8563;52.242;9.098;2024-02-26T07:49:55;5.20;99.90
16893;DHT22;8563;52.242;9.098;2024-02-26T07:52:28;5.50;99.90
16893;DHT22;8563;52.242;9.098;2024-02-26T07:55:00;5.90;99.90
16893;DHT22;8563;52.242;9.098;2024-02-26T07:57:34;6.10;99.90
16893;DHT22;8563;52.242;9.098;2024-02-26T08:00:07;6.40;99.90
16893;DHT22;8563;52.242;9.098;2024-02-26T08:02:40;6.60;99.90
16893;DHT22;8563;52.242;9.098;2024-02-26T08:05:12;6.80;99.90
16893;DHT22;8563;52.242;9.098;2024-02-26T08:07:45;6.90;99.90
16893;DHT22;8563;52.242;9.098;2024-02-26T08:10:17;6.90;99.90
16893;DHT22;8563;52.242;9.098;2024-02-26T08:12:50;7.00;99.90
16893;DHT22;8563;52.242;9.098;2024-02-26T08:15:23;7.00;99.90
16893;DHT22;8563;52.242;9.098;2024-02-26T08:17:55;7.00;99.90
16893;DHT22;8563;52.242;9.098;2024-02-26T08:20:27;7.00;99.90
16893;DHT22;8563;52.242;9.098;2024-02-26T08:22:59;7.00;99.90
16893;DHT22;8563;52.242;9.098;2024-02-26T08:25:31;7.10;99.90
16893;DHT22;8563;52.242;9.098;2024-02-26T08:28:05;7.10;99.90
16893;DHT22;8563;52.242;9.098;2024-02-26T08:30:37;7.10;99.90
16893;DHT22;8563;52.242;9.098;2024-02-26T08:33:09;7.20;99.90
16893;DHT22;8563;52.242;9.098;2024-02-26T08:35:42;7.20;99.90
16893;DHT22;8563;52.242;9.098;2024-02-26T08:38:14;7.30;99.90
16893;DHT22;8563;52.242;9.098;2024-02-26T08:40:46;7.40;99.90
16893;DHT22;8563;52.242;9.098;2024-02-26T08:43:20;7.40;99.90
16893;DHT22;8563;52.242;9.098;2024-02-26T08:45:52;7.40;99.90
16893;DHT22;8563;52.242;9.098;2024-02-26T08:48:25;7.50;99.90
16893;DHT22;8563;52.242;9.098;2024-02-26T08:50:57;7.50;99.90
16893;DHT22;8563;52.242;9.098;2024-02-26T08:53:29;7.50;99.90
16893;DHT22;8563;52.242;9.098;2024-02-26T08:56:02;7.50;99.90
16893;DHT22;8563;52.242;9.098;2024-02-26T08:58:35;7.50;99.90
16893;DHT22;8563;52.242;9.098;2024-02-26T09:01:07;7.60;99.90
16893;DHT22;8563;52.242;9.098;2024-02-26T09:03:40;7.60;99.90
16893;DHT22;8563;52.242;9.098;2024-02-26T09:06:14;7.60;99.90
16893;DHT22;8563;52.242;9.098;2024-02-26T09:08:47;7.70;99.90
16893;DHT22;8563;52.242;9.098;2024-02-26T09:11:19;7.70;99.90
16893;DHT22;8563;52.242;9.098;2024-02-26T09:13:53;7.70;99.90
16893;DHT22;8563;52.242;9.098;2024-02-26T09:16:25;7.80;99.90
16893;DHT22;8563;52.242;9.098;2024-02-26T09:18:57;7.90;99.90
16893;DHT22;8563;52.242;9.098;2024-02-26T09:21:29;7.90;99.90
16893;DHT22;8563;52.242;9.098;2024-02-26T09:24:02;8.00;99.90
16893;DHT22;8563;52.242;9.098;2024-02-26T09:26:34;8.10;99.90
16893;DHT22;8563;52.242;9.098;2024-02-26T09:29:08;8.10;99.90
16893;DHT22;8563;52.242;9.098;2024-02-26T09:31:40;8.00;99.90
16893;DHT22;8563;52.242;9.098;2024-02-26T09:34:13;7.90;99.90
16893;DHT22;8563;52.242;9.098;2024-02-26T09:36:45;7.60;99.90
16893;DHT22;8563;52.242;9.098;2024-02-26T09:39:17;7.70;99.90
16893;DHT22;8563;52.242;9.098;2024-02-26T09:41:52;7.70;99.90
16893;DHT22;8563;52.242;9.098;2024-02-26T09:44:27;7.70;99.90
16893;DHT22;8563;52.242;9.098;2024-02-26T09:47:01;7.70;99.90
16893;DHT22;8563;52.242;9.098;2024-02-26T09:49:35;7.60;99.90
16893;DHT22;8563;52.242;9.098;2024-02-26T09:52:08;7.60;99.90
16893;DHT22;8563;52.242;9.098;2024-02-26T09:54:41;7.70;99.90
16893;DHT22;8563;52.242;9.098;2024-02-26T09:57:15;7.60;99.90
16893;DHT22;8563;52.242;9.098;2024-02-26T09:59:50;7.50;99.90
16893;DHT22;8563;52.242;9.098;2024-02-26T10:02:23;7.60;99.90
16893;DHT22;8563;52.242;9.098;2024-02-26T10:04:56;7.70;99.90
16893;DHT22;8563;52.242;9.098;2024-02-26T10:07:29;7.60;99.90
16893;DHT22;8563;52.242;9.098;2024-02-26T10:10:01;7.40;99.90
16893;DHT22;8563;52.242;9.098;2024-02-26T10:12:34;7.50;99.90
16893;DHT22;8563;52.242;9.098;2024-02-26T10:15:08;7.60;99.90
16893;DHT22;8563;52.242;9.098;2024-02-26T10:17:41;7.90;99.90
16893;DHT22;8563;52.242;9.098;2024-02-26T10:20:14;8.10;99.90
16893;DHT22;8563;52.242;9.098;2024-02-26T10:22:48;8.20;99.90
16893;DHT22;8563;52.242;9.098;2024-02-26T10:25:21;8.10;99.90
16893;DHT22;8563;52.242;9.098;2024-02-26T10:27:53;7.60;99.90
16893;DHT22;8563;52.242;9.098;2024-02-26T10:30:28;7.60;99.90
16893;DHT22;8563;52.242;9.098;2024-02-26T10:33:01;7.60;99.90
16893;DHT22;8563;52.242;9.098;2024-02-26T10:35:33;7.50;99.90
16893;DHT22;8563;52.242;9.098;2024-02-26T10:38:09;7.20;99.90
16893;DHT22;8563;52.242;9.098;2024-02-26T10:40:42;7.30;99.90
16893;DHT22;8563;52.242;9.098;2024-02-26T10:43:14;7.30;99.90
16893;DHT22;8563;52.242;9.098;2024-02-26T10:45:48;7.30;99.90
16893;DHT22;8563;52.242;9.098;2024-02-26T10:48:20;7.20;99.90
16893;DHT22;8563;52.242;9.098;2024-02-26T10:50:53;7.30;99.90
16893;DHT22;8563;52.242;9.098;2024-02-26T10:53:29;7.40;99.90
16893;DHT22;8563;52.242;9.098;2024-02-26T10:56:04;7.30;99.90
16893;DHT22;8563;52.242;9.098;2024-02-26T10:58:37;7.40;99.90
16893;DHT22;8563;52.242;9.098;2024-02-26T11:01:11;7.40;99.90
16893;DHT22;8563;52.242;9.098;2024-02-26T11:03:44;7.50;99.90
16893;DHT22;8563;52.242;9.098;2024-02-26T11:06:16;7.70;99.90
16893;DHT22;8563;52.242;9.098;2024-02-26T11:08:50;7.60;99.90
16893;DHT22;8563;52.242;9.098;2024-02-26T11:11:23;7.80;99.90
16893;DHT22;8563;52.242;9.098;2024-02-26T11:13:59;7.80;99.90
16893;DHT22;8563;52.242;9.098;2024-02-26T11:16:35;7.70;99.90
16893;DHT22;8563;52.242;9.098;2024-02-26T11:19:09;7.90;99.90
16893;DHT22;8563;52.242;9.098;2024-02-26T11:21:41;7.90;99.90
16893;DHT22;8563;52.242;9.098;2024-02-26T11:24:15;7.90;99.90
16893;DHT22;8563;52.242;9.098;2024-02-26T11:26:51;7.90;99.90
16893;DHT22;8563;52.242;9.098;2024-02-26T11:29:37;7.80;99.90
16893;DHT22;8563;52.242;9.098;2024-02-26T11:32:10;7.90;99.90
16893;DHT22;8563;52.242;9.098;2024-02-26T11:34:43;8.00;99.90
16893;DHT22;8563;52.242;9.098;2024-02-26T11:37:16;8.00;99.90
16893;DHT22;8563;52.242;9.098;2024-02-26T11:39:51;8.00;99.90
16893;DHT22;8563;52.242;9.098;2024-02-26T11:42:24;8.00;99.90
16893;DHT22;8563;52.242;9.098;2024-02-26T11:44:57;7.90;99.90
16893;DHT22;8563;52.242;9.098;2024-02-26T11:47:35;8.00;99.90
16893;DHT22;8563;52.242;9.098;2024-02-26T11:50:32;8.00;99.90
16893;DHT22;8563;52.242;9.098;2024-02-26T11:53:26;8.20;99.90
16893;DHT22;8563;52.242;9.098;2024-02-26T11:56:28;8.50;99.90
16893;DHT22;8563;52.242;9.098;2024-02-26T11:59:03;8.50;99.90
16893;DHT22;8563;52.242;9.098;2024-02-26T12:01:39;8.80;99.90
16893;DHT22;8563;52.242;9.098;2024-02-26T12:04:18;8.80;99.90
16893;DHT22;8563;52.242;9.098;2024-02-26T12:06:52;8.80;99.90
16893;DHT22;8563;52.242;9.098;2024-02-26T12:09:31;8.60;99.90
16893;DHT22;8563;52.242;9.098;2024-02-26T12:12:04;8.60;99.90
16893;DHT22;8563;52.242;9.098;2024-02-26T12:14:53;8.50;99.90
16893;DHT22;8563;52.242;9.098;2024-02-26T12:17:26;8.40;99.90
16893;DHT22;8563;52.242;9.098;2024-02-26T12:20:09;8.20;99.90
16893;DHT22;8563;52.242;9.098;2024-02-26T12:22:44;8.20;99.90
16893;DHT22;8563;52.242;9.098;2024-02-26T12:25:17;8.40;99.90
16893;DHT22;8563;52.242;9.098;2024-02-26T12:27:51;8.40;99.90
16893;DHT22;8563;52.242;9.098;2024-02-26T12:30:24;8.40;99.90
16893;DHT22;8563;52.242;9.098;2024-02-26T12:32:57;8.50;99.90
16893;DHT22;8563;52.242;9.098;2024-02-26T12:35:32;8.40;99.90
16893;DHT22;8563;52.242;9.098;2024-02-26T12:38:05;8.50;99.90
16893;DHT22;8563;52.242;9.098;2024-02-26T12:40:37;8.50;99.90
16893;DHT22;8563;52.242;9.098;2024-02-26T12:43:09;8.50;99.90
16893;DHT22;8563;52.242;9.098;2024-02-26T12:45:43;8.50;99.90
16893;DHT22;8563;52.242;9.098;2024-02-26T12:48:17;8.50;99.90
16893;DHT22;8563;52.242;9.098;2024-02-26T12:50:50;8.50;99.90
16893;DHT22;8563;52.242;9.098;2024-02-26T12:53:22;8.40;99.90
16893;DHT22;8563;52.242;9.098;2024-02-26T12:55:55;8.40;99.90
16893;DHT22;8563;52.242;9.098;2024-02-26T12:58:28;8.30;99.90
16893;DHT22;8563;52.242;9.098;2024-02-26T13:01:01;8.30;99.90
16893;DHT22;8563;52.242;9.098;2024-02-26T13:03:34;8.30;99.90
16893;DHT22;8563;52.242;9.098;2024-02-26T13:06:09;8.30;99.90
16893;DHT22;8563;52.242;9.098;2024-02-26T13:08:41;8.30;99.90
16893;DHT22;8563;52.242;9.098;2024-02-26T13:11:14;8.20;99.90
16893;DHT22;8563;52.242;9.098;2024-02-26T13:13:48;8.20;99.90
16893;DHT22;8563;52.242;9.098;2024-02-26T13:16:24;8.30;99.90
16893;DHT22;8563;52.242;9.098;2024-02-26T13:18:56;8.20;99.90
16893;DHT22;8563;52.242;9.098;2024-02-26T13:21:30;8.20;99.90
16893;DHT22;8563;52.242;9.098;2024-02-26T13:24:02;8.30;99.90
16893;DHT22;8563;52.242;9.098;2024-02-26T13:26:35;8.20;99.90
16893;DHT22;8563;52.242;9.098;2024-02-26T13:29:07;8.20;99.90
16893;DHT22;8563;52.242;9.098;2024-02-26T13:31:40;8.30;99.90
16893;DHT22;8563;52.242;9.098;2024-02-26T13:34:22;8.40;99.90
16893;DHT22;8563;52.242;9.098;2024-02-26T13:36:56;8.40;99.90
16893;DHT22;8563;52.242;9.098;2024-02-26T13:39:29;8.50;99.90
16893;DHT22;8563;52.242;9.098;2024-02-26T13:42:01;8.50;99.90
16893;DHT22;8563;52.242;9.098;2024-02-26T13:44:33;8.50;99.90
16893;DHT22;8563;52.242;9.098;2024-02-26T13:47:10;8.50;99.90
16893;DHT22;8563;52.242;9.098;2024-02-26T13:49:42;8.50;99.90
16893;DHT22;8563;52.242;9.098;2024-02-26T13:52:15;8.40;99.90
16893;DHT22;8563;52.242;9.098;2024-02-26T13:54:48;8.40;99.90
16893;DHT22;8563;52.242;9.098;2024-02-26T13:57:20;8.40;99.90
16893;DHT22;8563;52.242;9.098;2024-02-26T13:59:52;8.50;99.90
16893;DHT22;8563;52.242;9.098;2024-02-26T14:02:24;8.50;99.90
16893;DHT22;8563;52.242;9.098;2024-02-26T14:04:57;8.50;99.90
16893;DHT22;8563;52.242;9.098;2024-02-26T14:07:30;8.50;99.90
16893;DHT22;8563;52.242;9.098;2024-02-26T14:10:03;8.60;99.90
16893;DHT22;8563;52.242;9.098;2024-02-26T14:12:36;8.70;99.90
16893;DHT22;8563;52.242;9.098;2024-02-26T14:15:10;8.80;99.90
16893;DHT22;8563;52.242;9.098;2024-02-26T14:17:42;8.80;99.90
16893;DHT22;8563;52.242;9.098;2024-02-26T14:20:15;8.90;99.90
16893;DHT22;8563;52.242;9.098;2024-02-26T14:22:49;8.80;99.90
16893;DHT22;8563;52.242;9.098;2024-02-26T14:25:22;8.80;99.90
16893;DHT22;8563;52.242;9.098;2024-02-26T14:27:54;8.80;99.90
16893;DHT22;8563;52.242;9.098;2024-02-26T14:30:28;8.90;99.90
16893;DHT22;8563;52.242;9.098;2024-02-26T14:33:00;9.00;99.90
16893;DHT22;8563;52.242;9.098;2024-02-26T14:35:33;8.90;99.90
16893;DHT22;8563;52.242;9.098;2024-02-26T14:38:07;8.80;99.90
16893;DHT22;8563;52.242;9.098;2024-02-26T14:40:39;8.80;99.90
16893;DHT22;8563;52.242;9.098;2024-02-26T14:43:12;8.80;99.90
16893;DHT22;8563;52.242;9.098;2024-02-26T14:45:44;8.90;99.90
16893;DHT22;8563;52.242;9.098;2024-02-26T14:48:16;8.90;99.90
16893;DHT22;8563;52.242;9.098;2024-02-26T14:50:49;8.80;99.90
16893;DHT22;8563;52.242;9.098;2024-02-26T14:53:22;8.90;99.90
16893;DHT22;8563;52.242;9.098;2024-02-26T14:55:55;9.00;99.90
16893;DHT22;8563;52.242;9.098;2024-02-26T14:58:27;9.10;99.90
16893;DHT22;8563;52.242;9.098;2024-02-26T15:00:59;9.00;99.90
16893;DHT22;8563;52.242;9.098;2024-02-26T15:03:31;9.00;99.90
16893;DHT22;8563;52.242;9.098;2024-02-26T15:06:04;8.90;99.90
16893;DHT22;8563;52.242;9.098;2024-02-26T15:08:38;9.00;99.90
16893;DHT22;8563;52.242;9.098;2024-02-26T15:11:10;9.00;99.90
16893;DHT22;8563;52.242;9.098;2024-02-26T15:13:42;9.00;99.90
16893;DHT22;8563;52.242;9.098;2024-02-26T15:16:17;8.80;99.90
16893;DHT22;8563;52.242;9.098;2024-02-26T15:18:51;8.80;99.90
16893;DHT22;8563;52.242;9.098;2024-02-26T15:21:23;8.60;99.90
16893;DHT22;8563;52.242;9.098;2024-02-26T15:23:57;8.60;99.90
16893;DHT22;8563;52.242;9.098;2024-02-26T15:26:29;8.60;99.90
16893;DHT22;8563;52.242;9.098;2024-02-26T15:29:01;8.60;99.90
16893;DHT22;8563;52.242;9.098;2024-02-26T15:31:34;8.60;99.90
16893;DHT22;8563;52.242;9.098;2024-02-26T15:34:06;8.50;99.90
16893;DHT22;8563;52.242;9.098;2024-02-26T15:36:38;8.50;99.90
16893;DHT22;8563;52.242;9.098;2024-02-26T15:39:12;8.40;99.90
16893;DHT22;8563;52.242;9.098;2024-02-26T15:41:44;8.50;99.90
16893;DHT22;8563;52.242;9.098;2024-02-26T15:44:16;8.50;99.90
16893;DHT22;8563;52.242;9.098;2024-02-26T15:46:49;8.30;99.90
16893;DHT22;8563;52.242;9.098;2024-02-26T15:49:21;8.20;99.90
16893;DHT22;8563;52.242;9.098;2024-02-26T15:51:53;8.10;99.90
16893;DHT22;8563;52.242;9.098;2024-02-26T15:54:27;8.10;99.90
16893;DHT22;8563;52.242;9.098;2024-02-26T15:56:59;8.00;99.90
16893;DHT22;8563;52.242;9.098;2024-02-26T15:59:31;7.90;99.90
16893;DHT22;8563;52.242;9.098;2024-02-26T16:02:04;8.00;99.90
16893;DHT22;8563;52.242;9.098;2024-02-26T16:04:36;8.10;99.90
16893;DHT22;8563;52.242;9.098;2024-02-26T16:07:15;8.20;99.90
16893;DHT22;8563;52.242;9.098;2024-02-26T16:09:52;8.20;99.90
16893;DHT22;8563;52.242;9.098;2024-02-26T16:12:29;8.20;99.90
16893;DHT22;8563;52.242;9.098;2024-02-26T16:15:08;8.20;99.90
16893;DHT22;8563;52.242;9.098;2024-02-26T16:17:43;8.20;99.90
16893;DHT22;8563;52.242;9.098;2024-02-26T16:20:19;8.20;99.90
16893;DHT22;8563;52.242;9.098;2024-02-26T16:22:52;8.20;99.90
16893;DHT22;8563;52.242;9.098;2024-02-26T16:25:25;8.20;99.90
16893;DHT22;8563;52.242;9.098;2024-02-26T16:27:58;8.20;99.90
16893;DHT22;8563;52.242;9.098;2024-02-26T16:30:30;8.20;99.90
16893;DHT22;8563;52.242;9.098;2024-02-26T16:33:03;8.20;99.90
16893;DHT22;8563;52.242;9.098;2024-02-26T16:35:35;8.10;99.90
16893;DHT22;8563;52.242;9.098;2024-02-26T16:38:08;8.10;99.90
16893;DHT22;8563;52.242;9.098;2024-02-26T16:40:41;8.10;99.90